Aviation Digital Data Service (ADDS)

Output produced by METARs form (0901 UTC 24 March 2019)
found at http://www.aviationweather.gov/metar/data/
 
METAR text: LOWI 240850Z 29003KT 230V330 CAVOK 10/01 Q1023 NOSIG
Conditions at: LOWI (INNSBRUCK AIRPOR, AT) observed 0850 UTC 24 March 2019
Temperature: 10.0°C (50°F)
Dewpoint: 1.0°C (34°F) [RH = 53%]
Pressure (altimeter): 30.21 inches Hg (1023.0 mb)
Winds: from the WNW (290 degrees) at 3 MPH (3 knots; 1.5 m/s)
Visibility: 6 or more miles (10+ km)
Ceiling: ceiling and visibility are OK
Clouds: unknown
Weather: no significant weather observed at this time

METAR text: LOWI 240820Z 27005KT 240V310 CAVOK 09/02 Q1024 NOSIG
Conditions at: LOWI (INNSBRUCK AIRPOR, AT) observed 0820 UTC 24 March 2019
Temperature: 9.0°C (48°F)
Dewpoint: 2.0°C (36°F) [RH = 61%]
Pressure (altimeter): 30.24 inches Hg (1024.0 mb)
Winds: from the W (270 degrees) at 6 MPH (5 knots; 2.6 m/s)
Visibility: 6 or more miles (10+ km)
Ceiling: ceiling and visibility are OK
Clouds: unknown
Weather: no significant weather observed at this time

METAR text: LOWI 240750Z 26003KT 200V320 CAVOK 07/01 Q1025 NOSIG
Conditions at: LOWI (INNSBRUCK AIRPOR, AT) observed 0750 UTC 24 March 2019
Temperature: 7.0°C (45°F)
Dewpoint: 1.0°C (34°F) [RH = 66%]
Pressure (altimeter): 30.27 inches Hg (1025.0 mb)
Winds: from the W (260 degrees) at 3 MPH (3 knots; 1.5 m/s)
Visibility: 6 or more miles (10+ km)
Ceiling: ceiling and visibility are OK
Clouds: unknown
Weather: no significant weather observed at this time

METAR text: LOWI 240720Z 26003KT 230V290 CAVOK 06/01 Q1025 NOSIG
Conditions at: LOWI (INNSBRUCK AIRPOR, AT) observed 0720 UTC 24 March 2019
Temperature: 6.0°C (43°F)
Dewpoint: 1.0°C (34°F) [RH = 70%]
Pressure (altimeter): 30.27 inches Hg (1025.0 mb)
Winds: from the W (260 degrees) at 3 MPH (3 knots; 1.5 m/s)
Visibility: 6 or more miles (10+ km)
Ceiling: ceiling and visibility are OK
Clouds: unknown
Weather: no significant weather observed at this time

METAR text: LOWI 240650Z 26003KT CAVOK 04/01 Q1025 NOSIG
Conditions at: LOWI (INNSBRUCK AIRPOR, AT) observed 0650 UTC 24 March 2019
Temperature: 4.0°C (39°F)
Dewpoint: 1.0°C (34°F) [RH = 81%]
Pressure (altimeter): 30.27 inches Hg (1025.0 mb)
Winds: from the W (260 degrees) at 3 MPH (3 knots; 1.5 m/s)
Visibility: 6 or more miles (10+ km)
Ceiling: ceiling and visibility are OK
Clouds: unknown
Weather: no significant weather observed at this time

METAR text: LOWI 240620Z 25003KT CAVOK 02/00 Q1025 NOSIG
Conditions at: LOWI (INNSBRUCK AIRPOR, AT) observed 0620 UTC 24 March 2019
Temperature: 2.0°C (36°F)
Dewpoint: 0.0°C (32°F) [RH = 87%]
Pressure (altimeter): 30.27 inches Hg (1025.0 mb)
Winds: from the WSW (250 degrees) at 3 MPH (3 knots; 1.5 m/s)
Visibility: 6 or more miles (10+ km)
Ceiling: ceiling and visibility are OK
Clouds: unknown
Weather: no significant weather observed at this time

METAR text: LOWI 240550Z VRB02KT CAVOK 01/M00 Q1025 NOSIG
Conditions at: LOWI (INNSBRUCK AIRPOR, AT) observed 0550 UTC 24 March 2019
Temperature: 1.0°C (34°F)
Dewpoint: 0.0°C (32°F) [RH = 93%]
Pressure (altimeter): 30.27 inches Hg (1025.0 mb)
Winds: variable direction winds at 2 MPH (2 knots; 1.0 m/s)
Visibility: 6 or more miles (10+ km)
Ceiling: ceiling and visibility are OK
Clouds: unknown
Weather: no significant weather observed at this time

METAR text: LOWI 240520Z 24002KT CAVOK 01/M01 Q1026 NOSIG
Conditions at: LOWI (INNSBRUCK AIRPOR, AT) observed 0520 UTC 24 March 2019
Temperature: 1.0°C (34°F)
Dewpoint: -1.0°C (30°F) [RH = 86%]
Pressure (altimeter): 30.30 inches Hg (1026.0 mb)
Winds: from the WSW (240 degrees) at 2 MPH (2 knots; 1.0 m/s)
Visibility: 6 or more miles (10+ km)
Ceiling: ceiling and visibility are OK
Clouds: unknown
Weather: no significant weather observed at this time

METAR text: LOWI 240450Z 28002KT CAVOK 01/M01 Q1025 NOSIG
Conditions at: LOWI (INNSBRUCK AIRPOR, AT) observed 0450 UTC 24 March 2019
Temperature: 1.0°C (34°F)
Dewpoint: -1.0°C (30°F) [RH = 86%]
Pressure (altimeter): 30.27 inches Hg (1025.0 mb)
Winds: from the W (280 degrees) at 2 MPH (2 knots; 1.0 m/s)
Visibility: 6 or more miles (10+ km)
Ceiling: ceiling and visibility are OK
Clouds: unknown
Weather: no significant weather observed at this time

METAR text: LOWI 240420Z AUTO 30002KT 9999 NSC 01/M01 Q1025
Conditions at: LOWI (INNSBRUCK AIRPOR, AT) observed 0420 UTC 24 March 2019
Temperature: 1.0°C (34°F)
Dewpoint: -1.0°C (30°F) [RH = 86%]
Pressure (altimeter): 30.27 inches Hg (1025.0 mb)
Winds: from the WNW (300 degrees) at 2 MPH (2 knots; 1.0 m/s)
Visibility: 6 or more miles (10+ km)
Ceiling: at least 12,000 feet AGL
Clouds: sky clear below 12,000 feet AGL
Weather: no significant weather observed at this time

METAR text: LOWI 240350Z AUTO 25002KT 9999 NSC 01/M01 Q1025
Conditions at: LOWI (INNSBRUCK AIRPOR, AT) observed 0350 UTC 24 March 2019
Temperature: 1.0°C (34°F)
Dewpoint: -1.0°C (30°F) [RH = 86%]
Pressure (altimeter): 30.27 inches Hg (1025.0 mb)
Winds: from the WSW (250 degrees) at 2 MPH (2 knots; 1.0 m/s)
Visibility: 6 or more miles (10+ km)
Ceiling: at least 12,000 feet AGL
Clouds: sky clear below 12,000 feet AGL
Weather: no significant weather observed at this time

METAR text: LOWI 240320Z AUTO 27002KT 9999 NSC 02/M00 Q1025
Conditions at: LOWI (INNSBRUCK AIRPOR, AT) observed 0320 UTC 24 March 2019
Temperature: 2.0°C (36°F)
Dewpoint: 0.0°C (32°F) [RH = 87%]
Pressure (altimeter): 30.27 inches Hg (1025.0 mb)
Winds: from the W (270 degrees) at 2 MPH (2 knots; 1.0 m/s)
Visibility: 6 or more miles (10+ km)
Ceiling: at least 12,000 feet AGL
Clouds: sky clear below 12,000 feet AGL
Weather: no significant weather observed at this time

METAR text: LOWI 240250Z AUTO VRB01KT 9999 NSC 02/M00 Q1026
Conditions at: LOWI (INNSBRUCK AIRPOR, AT) observed 0250 UTC 24 March 2019
Temperature: 2.0°C (36°F)
Dewpoint: 0.0°C (32°F) [RH = 87%]
Pressure (altimeter): 30.30 inches Hg (1026.0 mb)
Winds: variable direction winds at 1 MPH (1 knots; 0.5 m/s)
Visibility: 6 or more miles (10+ km)
Ceiling: at least 12,000 feet AGL
Clouds: sky clear below 12,000 feet AGL
Weather: no significant weather observed at this time

METAR text: LOWI 240220Z AUTO 24002KT 9999 NSC 03/00 Q1026
Conditions at: LOWI (INNSBRUCK AIRPOR, AT) observed 0220 UTC 24 March 2019
Temperature: 3.0°C (37°F)
Dewpoint: 0.0°C (32°F) [RH = 81%]
Pressure (altimeter): 30.30 inches Hg (1026.0 mb)
Winds: from the WSW (240 degrees) at 2 MPH (2 knots; 1.0 m/s)
Visibility: 6 or more miles (10+ km)
Ceiling: at least 12,000 feet AGL
Clouds: sky clear below 12,000 feet AGL
Weather: no significant weather observed at this time

METAR text: LOWI 240150Z AUTO VRB01KT 9999 NSC 03/00 Q1026
Conditions at: LOWI (INNSBRUCK AIRPOR, AT) observed 0150 UTC 24 March 2019
Temperature: 3.0°C (37°F)
Dewpoint: 0.0°C (32°F) [RH = 81%]
Pressure (altimeter): 30.30 inches Hg (1026.0 mb)
Winds: variable direction winds at 1 MPH (1 knots; 0.5 m/s)
Visibility: 6 or more miles (10+ km)
Ceiling: at least 12,000 feet AGL
Clouds: sky clear below 12,000 feet AGL
Weather: no significant weather observed at this time

METAR text: LOWI 240120Z AUTO 25002KT 9999 NSC 03/00 Q1026
Conditions at: LOWI (INNSBRUCK AIRPOR, AT) observed 0120 UTC 24 March 2019
Temperature: 3.0°C (37°F)
Dewpoint: 0.0°C (32°F) [RH = 81%]
Pressure (altimeter): 30.30 inches Hg (1026.0 mb)
Winds: from the WSW (250 degrees) at 2 MPH (2 knots; 1.0 m/s)
Visibility: 6 or more miles (10+ km)
Ceiling: at least 12,000 feet AGL
Clouds: sky clear below 12,000 feet AGL
Weather: no significant weather observed at this time

METAR text: LOWI 240050Z AUTO 24003KT 210V270 9999 NSC 04/01 Q1026
Conditions at: LOWI (INNSBRUCK AIRPOR, AT) observed 0050 UTC 24 March 2019
Temperature: 4.0°C (39°F)
Dewpoint: 1.0°C (34°F) [RH = 81%]
Pressure (altimeter): 30.30 inches Hg (1026.0 mb)
Winds: from the WSW (240 degrees) at 3 MPH (3 knots; 1.5 m/s)
Visibility: 6 or more miles (10+ km)
Ceiling: at least 12,000 feet AGL
Clouds: sky clear below 12,000 feet AGL
Weather: no significant weather observed at this time

METAR text: LOWI 240020Z AUTO 23003KT 9999 NSC 05/01 Q1027
Conditions at: LOWI (INNSBRUCK AIRPOR, AT) observed 0020 UTC 24 March 2019
Temperature: 5.0°C (41°F)
Dewpoint: 1.0°C (34°F) [RH = 75%]
Pressure (altimeter): 30.32 inches Hg (1027.0 mb)
Winds: from the SW (230 degrees) at 3 MPH (3 knots; 1.5 m/s)
Visibility: 6 or more miles (10+ km)
Ceiling: at least 12,000 feet AGL
Clouds: sky clear below 12,000 feet AGL
Weather: no significant weather observed at this time

METAR text: LOWI 232350Z AUTO VRB02KT 9999 NSC 04/01 Q1027
Conditions at: LOWI (INNSBRUCK AIRPOR, AT) observed 2350 UTC 23 March 2019
Temperature: 4.0°C (39°F)
Dewpoint: 1.0°C (34°F) [RH = 81%]
Pressure (altimeter): 30.32 inches Hg (1027.0 mb)
Winds: variable direction winds at 2 MPH (2 knots; 1.0 m/s)
Visibility: 6 or more miles (10+ km)
Ceiling: at least 12,000 feet AGL
Clouds: sky clear below 12,000 feet AGL
Weather: no significant weather observed at this time

METAR text: LOWI 232320Z AUTO 27003KT 9999 NSC 05/01 Q1027
Conditions at: LOWI (INNSBRUCK AIRPOR, AT) observed 2320 UTC 23 March 2019
Temperature: 5.0°C (41°F)
Dewpoint: 1.0°C (34°F) [RH = 75%]
Pressure (altimeter): 30.32 inches Hg (1027.0 mb)
Winds: from the W (270 degrees) at 3 MPH (3 knots; 1.5 m/s)
Visibility: 6 or more miles (10+ km)
Ceiling: at least 12,000 feet AGL
Clouds: sky clear below 12,000 feet AGL
Weather: no significant weather observed at this time

METAR text: LOWI 232250Z AUTO 26003KT 9999 NSC 06/01 Q1027
Conditions at: LOWI (INNSBRUCK AIRPOR, AT) observed 2250 UTC 23 March 2019
Temperature: 6.0°C (43°F)
Dewpoint: 1.0°C (34°F) [RH = 70%]
Pressure (altimeter): 30.32 inches Hg (1027.0 mb)
Winds: from the W (260 degrees) at 3 MPH (3 knots; 1.5 m/s)
Visibility: 6 or more miles (10+ km)
Ceiling: at least 12,000 feet AGL
Clouds: sky clear below 12,000 feet AGL
Weather: no significant weather observed at this time

METAR text: LOWI 232220Z AUTO VRB01KT 9999 NSC 06/01 Q1027
Conditions at: LOWI (INNSBRUCK AIRPOR, AT) observed 2220 UTC 23 March 2019
Temperature: 6.0°C (43°F)
Dewpoint: 1.0°C (34°F) [RH = 70%]
Pressure (altimeter): 30.32 inches Hg (1027.0 mb)
Winds: variable direction winds at 1 MPH (1 knots; 0.5 m/s)
Visibility: 6 or more miles (10+ km)
Ceiling: at least 12,000 feet AGL
Clouds: sky clear below 12,000 feet AGL
Weather: no significant weather observed at this time

METAR text: LOWI 232150Z 15002KT CAVOK 06/01 Q1027 NOSIG
Conditions at: LOWI (INNSBRUCK AIRPOR, AT) observed 2150 UTC 23 March 2019
Temperature: 6.0°C (43°F)
Dewpoint: 1.0°C (34°F) [RH = 70%]
Pressure (altimeter): 30.32 inches Hg (1027.0 mb)
Winds: from the SSE (150 degrees) at 2 MPH (2 knots; 1.0 m/s)
Visibility: 6 or more miles (10+ km)
Ceiling: ceiling and visibility are OK
Clouds: unknown
Weather: no significant weather observed at this time

METAR text: LOWI 232120Z VRB01KT CAVOK 07/01 Q1027 NOSIG
Conditions at: LOWI (INNSBRUCK AIRPOR, AT) observed 2120 UTC 23 March 2019
Temperature: 7.0°C (45°F)
Dewpoint: 1.0°C (34°F) [RH = 66%]
Pressure (altimeter): 30.32 inches Hg (1027.0 mb)
Winds: variable direction winds at 1 MPH (1 knots; 0.5 m/s)
Visibility: 6 or more miles (10+ km)
Ceiling: ceiling and visibility are OK
Clouds: unknown
Weather: no significant weather observed at this time

METAR text: LOWI 232050Z VRB01KT CAVOK 08/02 Q1027 NOSIG
Conditions at: LOWI (INNSBRUCK AIRPOR, AT) observed 2050 UTC 23 March 2019
Temperature: 8.0°C (46°F)
Dewpoint: 2.0°C (36°F) [RH = 66%]
Pressure (altimeter): 30.32 inches Hg (1027.0 mb)
Winds: variable direction winds at 1 MPH (1 knots; 0.5 m/s)
Visibility: 6 or more miles (10+ km)
Ceiling: ceiling and visibility are OK
Clouds: unknown
Weather: no significant weather observed at this time

METAR text: LOWI 232020Z VRB01KT CAVOK 09/02 Q1027 NOSIG
Conditions at: LOWI (INNSBRUCK AIRPOR, AT) observed 2020 UTC 23 March 2019
Temperature: 9.0°C (48°F)
Dewpoint: 2.0°C (36°F) [RH = 61%]
Pressure (altimeter): 30.32 inches Hg (1027.0 mb)
Winds: variable direction winds at 1 MPH (1 knots; 0.5 m/s)
Visibility: 6 or more miles (10+ km)
Ceiling: ceiling and visibility are OK
Clouds: unknown
Weather: no significant weather observed at this time

METAR text: LOWI 231950Z VRB01KT CAVOK 09/02 Q1026 NOSIG
Conditions at: LOWI (INNSBRUCK AIRPOR, AT) observed 1950 UTC 23 March 2019
Temperature: 9.0°C (48°F)
Dewpoint: 2.0°C (36°F) [RH = 61%]
Pressure (altimeter): 30.30 inches Hg (1026.0 mb)
Winds: variable direction winds at 1 MPH (1 knots; 0.5 m/s)
Visibility: 6 or more miles (10+ km)
Ceiling: ceiling and visibility are OK
Clouds: unknown
Weather: no significant weather observed at this time

METAR text: LOWI 231920Z VRB01KT CAVOK 10/02 Q1026 NOSIG
Conditions at: LOWI (INNSBRUCK AIRPOR, AT) observed 1920 UTC 23 March 2019
Temperature: 10.0°C (50°F)
Dewpoint: 2.0°C (36°F) [RH = 57%]
Pressure (altimeter): 30.30 inches Hg (1026.0 mb)
Winds: variable direction winds at 1 MPH (1 knots; 0.5 m/s)
Visibility: 6 or more miles (10+ km)
Ceiling: ceiling and visibility are OK
Clouds: unknown
Weather: no significant weather observed at this time

METAR text: LOWI 231850Z 20003KT 140V280 CAVOK 12/02 Q1026 NOSIG
Conditions at: LOWI (INNSBRUCK AIRPOR, AT) observed 1850 UTC 23 March 2019
Temperature: 12.0°C (54°F)
Dewpoint: 2.0°C (36°F) [RH = 50%]
Pressure (altimeter): 30.30 inches Hg (1026.0 mb)
Winds: from the SSW (200 degrees) at 3 MPH (3 knots; 1.5 m/s)
Visibility: 6 or more miles (10+ km)
Ceiling: ceiling and visibility are OK
Clouds: unknown
Weather: no significant weather observed at this time

METAR text: LOWI 231820Z 22003KT 140V260 CAVOK 13/01 Q1025 NOSIG
Conditions at: LOWI (INNSBRUCK AIRPOR, AT) observed 1820 UTC 23 March 2019
Temperature: 13.0°C (55°F)
Dewpoint: 1.0°C (34°F) [RH = 44%]
Pressure (altimeter): 30.27 inches Hg (1025.0 mb)
Winds: from the SW (220 degrees) at 3 MPH (3 knots; 1.5 m/s)
Visibility: 6 or more miles (10+ km)
Ceiling: ceiling and visibility are OK
Clouds: unknown
Weather: no significant weather observed at this time

METAR text: LOWI 231750Z 27005KT 250V310 CAVOK 14/02 Q1025 NOSIG
Conditions at: LOWI (INNSBRUCK AIRPOR, AT) observed 1750 UTC 23 March 2019
Temperature: 14.0°C (57°F)
Dewpoint: 2.0°C (36°F) [RH = 44%]
Pressure (altimeter): 30.27 inches Hg (1025.0 mb)
Winds: from the W (270 degrees) at 6 MPH (5 knots; 2.6 m/s)
Visibility: 6 or more miles (10+ km)
Ceiling: ceiling and visibility are OK
Clouds: unknown
Weather: no significant weather observed at this time

METAR text: LOWI 231720Z 01003KT 330V050 CAVOK 15/01 Q1024 NOSIG
Conditions at: LOWI (INNSBRUCK AIRPOR, AT) observed 1720 UTC 23 March 2019
Temperature: 15.0°C (59°F)
Dewpoint: 1.0°C (34°F) [RH = 39%]
Pressure (altimeter): 30.24 inches Hg (1024.0 mb)
Winds: from the N (10 degrees) at 3 MPH (3 knots; 1.5 m/s)
Visibility: 6 or more miles (10+ km)
Ceiling: ceiling and visibility are OK
Clouds: unknown
Weather: no significant weather observed at this time

METAR text: LOWI 231650Z 07006KT 040V110 CAVOK 18/01 Q1024 NOSIG
Conditions at: LOWI (INNSBRUCK AIRPOR, AT) observed 1650 UTC 23 March 2019
Temperature: 18.0°C (64°F)
Dewpoint: 1.0°C (34°F) [RH = 32%]
Pressure (altimeter): 30.24 inches Hg (1024.0 mb)
Winds: from the ENE (70 degrees) at 7 MPH (6 knots; 3.1 m/s)
Visibility: 6 or more miles (10+ km)
Ceiling: ceiling and visibility are OK
Clouds: unknown
Weather: no significant weather observed at this time

METAR text: LOWI 231620Z 05009KT CAVOK 18/01 Q1024 NOSIG
Conditions at: LOWI (INNSBRUCK AIRPOR, AT) observed 1620 UTC 23 March 2019
Temperature: 18.0°C (64°F)
Dewpoint: 1.0°C (34°F) [RH = 32%]
Pressure (altimeter): 30.24 inches Hg (1024.0 mb)
Winds: from the NE (50 degrees) at 10 MPH (9 knots; 4.6 m/s)
Visibility: 6 or more miles (10+ km)
Ceiling: ceiling and visibility are OK
Clouds: unknown
Weather: no significant weather observed at this time

METAR text: LOWI 231550Z 06008KT CAVOK 19/01 Q1024 NOSIG
Conditions at: LOWI (INNSBRUCK AIRPOR, AT) observed 1550 UTC 23 March 2019
Temperature: 19.0°C (66°F)
Dewpoint: 1.0°C (34°F) [RH = 30%]
Pressure (altimeter): 30.24 inches Hg (1024.0 mb)
Winds: from the ENE (60 degrees) at 9 MPH (8 knots; 4.1 m/s)
Visibility: 6 or more miles (10+ km)
Ceiling: ceiling and visibility are OK
Clouds: unknown
Weather: no significant weather observed at this time

METAR text: LOWI 231520Z 07007KT 040V110 CAVOK 19/00 Q1024 NOSIG
Conditions at: LOWI (INNSBRUCK AIRPOR, AT) observed 1520 UTC 23 March 2019
Temperature: 19.0°C (66°F)
Dewpoint: 0.0°C (32°F) [RH = 28%]
Pressure (altimeter): 30.24 inches Hg (1024.0 mb)
Winds: from the ENE (70 degrees) at 8 MPH (7 knots; 3.6 m/s)
Visibility: 6 or more miles (10+ km)
Ceiling: ceiling and visibility are OK
Clouds: unknown
Weather: no significant weather observed at this time

METAR text: LOWI 231450Z 10005KT 070V140 CAVOK 20/01 Q1024 NOSIG
Conditions at: LOWI (INNSBRUCK AIRPOR, AT) observed 1450 UTC 23 March 2019
Temperature: 20.0°C (68°F)
Dewpoint: 1.0°C (34°F) [RH = 28%]
Pressure (altimeter): 30.24 inches Hg (1024.0 mb)
Winds: from the E (100 degrees) at 6 MPH (5 knots; 2.6 m/s)
Visibility: 6 or more miles (10+ km)
Ceiling: ceiling and visibility are OK
Clouds: unknown
Weather: no significant weather observed at this time

METAR text: LOWI 231420Z 06005KT 010V110 CAVOK 20/01 Q1024 NOSIG
Conditions at: LOWI (INNSBRUCK AIRPOR, AT) observed 1420 UTC 23 March 2019
Temperature: 20.0°C (68°F)
Dewpoint: 1.0°C (34°F) [RH = 28%]
Pressure (altimeter): 30.24 inches Hg (1024.0 mb)
Winds: from the ENE (60 degrees) at 6 MPH (5 knots; 2.6 m/s)
Visibility: 6 or more miles (10+ km)
Ceiling: ceiling and visibility are OK
Clouds: unknown
Weather: no significant weather observed at this time

METAR text: LOWI 231350Z 09006KT 030V120 CAVOK 20/M02 Q1024 NOSIG
Conditions at: LOWI (INNSBRUCK AIRPOR, AT) observed 1350 UTC 23 March 2019
Temperature: 20.0°C (68°F)
Dewpoint: -2.0°C (28°F) [RH = 23%]
Pressure (altimeter): 30.24 inches Hg (1024.0 mb)
Winds: from the E (90 degrees) at 7 MPH (6 knots; 3.1 m/s)
Visibility: 6 or more miles (10+ km)
Ceiling: ceiling and visibility are OK
Clouds: unknown
Weather: no significant weather observed at this time

METAR text: LOWI 231320Z VRB05KT CAVOK 19/M03 Q1025 BECMG 09007KT
Conditions at: LOWI (INNSBRUCK AIRPOR, AT) observed 1320 UTC 23 March 2019
Temperature: 19.0°C (66°F)
Dewpoint: -3.0°C (27°F) [RH = 22%]
Pressure (altimeter): 30.27 inches Hg (1025.0 mb)
Winds: variable direction winds at 6 MPH (5 knots; 2.6 m/s)
Visibility: 6 or more miles (10+ km)
Ceiling: ceiling and visibility are OK
Clouds: unknown
Weather: no significant weather observed at this time

METAR text: LOWI 231250Z VRB03KT CAVOK 18/01 Q1025 BECMG 09007KT
Conditions at: LOWI (INNSBRUCK AIRPOR, AT) observed 1250 UTC 23 March 2019
Temperature: 18.0°C (64°F)
Dewpoint: 1.0°C (34°F) [RH = 32%]
Pressure (altimeter): 30.27 inches Hg (1025.0 mb)
Winds: variable direction winds at 3 MPH (3 knots; 1.5 m/s)
Visibility: 6 or more miles (10+ km)
Ceiling: ceiling and visibility are OK
Clouds: unknown
Weather: no significant weather observed at this time

METAR text: LOWI 231220Z VRB03KT CAVOK 18/00 Q1025 BECMG 09008KT
Conditions at: LOWI (INNSBRUCK AIRPOR, AT) observed 1220 UTC 23 March 2019
Temperature: 18.0°C (64°F)
Dewpoint: 0.0°C (32°F) [RH = 30%]
Pressure (altimeter): 30.27 inches Hg (1025.0 mb)
Winds: variable direction winds at 3 MPH (3 knots; 1.5 m/s)
Visibility: 6 or more miles (10+ km)
Ceiling: ceiling and visibility are OK
Clouds: unknown
Weather: no significant weather observed at this time

METAR text: LOWI 231150Z VRB03KT CAVOK 17/M00 Q1026 BECMG 09008KT
Conditions at: LOWI (INNSBRUCK AIRPOR, AT) observed 1150 UTC 23 March 2019
Temperature: 17.0°C (63°F)
Dewpoint: 0.0°C (32°F) [RH = 32%]
Pressure (altimeter): 30.30 inches Hg (1026.0 mb)
Winds: variable direction winds at 3 MPH (3 knots; 1.5 m/s)
Visibility: 6 or more miles (10+ km)
Ceiling: ceiling and visibility are OK
Clouds: unknown
Weather: no significant weather observed at this time

METAR text: LOWI 231120Z VRB02KT CAVOK 15/M00 Q1026 BECMG 09008KT
Conditions at: LOWI (INNSBRUCK AIRPOR, AT) observed 1120 UTC 23 March 2019
Temperature: 15.0°C (59°F)
Dewpoint: 0.0°C (32°F) [RH = 36%]
Pressure (altimeter): 30.30 inches Hg (1026.0 mb)
Winds: variable direction winds at 2 MPH (2 knots; 1.0 m/s)
Visibility: 6 or more miles (10+ km)
Ceiling: ceiling and visibility are OK
Clouds: unknown
Weather: no significant weather observed at this time

METAR text: LOWI 231050Z VRB02KT CAVOK 14/M01 Q1027 NOSIG
Conditions at: LOWI (INNSBRUCK AIRPOR, AT) observed 1050 UTC 23 March 2019
Temperature: 14.0°C (57°F)
Dewpoint: -1.0°C (30°F) [RH = 36%]
Pressure (altimeter): 30.32 inches Hg (1027.0 mb)
Winds: variable direction winds at 2 MPH (2 knots; 1.0 m/s)
Visibility: 6 or more miles (10+ km)
Ceiling: ceiling and visibility are OK
Clouds: unknown
Weather: no significant weather observed at this time

METAR text: LOWI 231020Z VRB03KT CAVOK 14/01 Q1028 NOSIG
Conditions at: LOWI (INNSBRUCK AIRPOR, AT) observed 1020 UTC 23 March 2019
Temperature: 14.0°C (57°F)
Dewpoint: 1.0°C (34°F) [RH = 41%]
Pressure (altimeter): 30.35 inches Hg (1028.0 mb)
Winds: variable direction winds at 3 MPH (3 knots; 1.5 m/s)
Visibility: 6 or more miles (10+ km)
Ceiling: ceiling and visibility are OK
Clouds: unknown
Weather: no significant weather observed at this time

METAR text: LOWI 230950Z 27005KT 240V300 CAVOK 12/M00 Q1028 NOSIG
Conditions at: LOWI (INNSBRUCK AIRPOR, AT) observed 0950 UTC 23 March 2019
Temperature: 12.0°C (54°F)
Dewpoint: 0.0°C (32°F) [RH = 44%]
Pressure (altimeter): 30.35 inches Hg (1028.0 mb)
Winds: from the W (270 degrees) at 6 MPH (5 knots; 2.6 m/s)
Visibility: 6 or more miles (10+ km)
Ceiling: ceiling and visibility are OK
Clouds: unknown
Weather: no significant weather observed at this time

METAR text: LOWI 230920Z 25004KT 190V280 CAVOK 11/M00 Q1028 NOSIG
Conditions at: LOWI (INNSBRUCK AIRPOR, AT) observed 0920 UTC 23 March 2019
Temperature: 11.0°C (52°F)
Dewpoint: 0.0°C (32°F) [RH = 47%]
Pressure (altimeter): 30.35 inches Hg (1028.0 mb)
Winds: from the WSW (250 degrees) at 5 MPH (4 knots; 2.1 m/s)
Visibility: 6 or more miles (10+ km)
Ceiling: ceiling and visibility are OK
Clouds: unknown
Weather: no significant weather observed at this time

METAR text: LOWI 230850Z 26004KT 230V290 CAVOK 09/M01 Q1029 NOSIG
Conditions at: LOWI (INNSBRUCK AIRPOR, AT) observed 0850 UTC 23 March 2019
Temperature: 9.0°C (48°F)
Dewpoint: -1.0°C (30°F) [RH = 49%]
Pressure (altimeter): 30.38 inches Hg (1029.0 mb)
Winds: from the W (260 degrees) at 5 MPH (4 knots; 2.1 m/s)
Visibility: 6 or more miles (10+ km)
Ceiling: ceiling and visibility are OK
Clouds: unknown
Weather: no significant weather observed at this time

METAR text: LOWI 230820Z 26006KT CAVOK 08/00 Q1029 NOSIG
Conditions at: LOWI (INNSBRUCK AIRPOR, AT) observed 0820 UTC 23 March 2019
Temperature: 8.0°C (46°F)
Dewpoint: 0.0°C (32°F) [RH = 57%]
Pressure (altimeter): 30.38 inches Hg (1029.0 mb)
Winds: from the W (260 degrees) at 7 MPH (6 knots; 3.1 m/s)
Visibility: 6 or more miles (10+ km)
Ceiling: ceiling and visibility are OK
Clouds: unknown
Weather: no significant weather observed at this time

METAR text: LOWI 230750Z 27004KT 240V300 CAVOK 07/01 Q1029 NOSIG
Conditions at: LOWI (INNSBRUCK AIRPOR, AT) observed 0750 UTC 23 March 2019
Temperature: 7.0°C (45°F)
Dewpoint: 1.0°C (34°F) [RH = 66%]
Pressure (altimeter): 30.38 inches Hg (1029.0 mb)
Winds: from the W (270 degrees) at 5 MPH (4 knots; 2.1 m/s)
Visibility: 6 or more miles (10+ km)
Ceiling: ceiling and visibility are OK
Clouds: unknown
Weather: no significant weather observed at this time

METAR text: LOWI 230720Z 27005KT CAVOK 05/01 Q1030 NOSIG
Conditions at: LOWI (INNSBRUCK AIRPOR, AT) observed 0720 UTC 23 March 2019
Temperature: 5.0°C (41°F)
Dewpoint: 1.0°C (34°F) [RH = 75%]
Pressure (altimeter): 30.41 inches Hg (1030.0 mb)
Winds: from the W (270 degrees) at 6 MPH (5 knots; 2.6 m/s)
Visibility: 6 or more miles (10+ km)
Ceiling: ceiling and visibility are OK
Clouds: unknown
Weather: no significant weather observed at this time

METAR text: LOWI 230650Z 27003KT CAVOK 04/01 Q1030 NOSIG
Conditions at: LOWI (INNSBRUCK AIRPOR, AT) observed 0650 UTC 23 March 2019
Temperature: 4.0°C (39°F)
Dewpoint: 1.0°C (34°F) [RH = 81%]
Pressure (altimeter): 30.41 inches Hg (1030.0 mb)
Winds: from the W (270 degrees) at 3 MPH (3 knots; 1.5 m/s)
Visibility: 6 or more miles (10+ km)
Ceiling: ceiling and visibility are OK
Clouds: unknown
Weather: no significant weather observed at this time

METAR text: LOWI 230620Z 27003KT CAVOK 02/M00 Q1030 NOSIG
Conditions at: LOWI (INNSBRUCK AIRPOR, AT) observed 0620 UTC 23 March 2019
Temperature: 2.0°C (36°F)
Dewpoint: 0.0°C (32°F) [RH = 87%]
Pressure (altimeter): 30.41 inches Hg (1030.0 mb)
Winds: from the W (270 degrees) at 3 MPH (3 knots; 1.5 m/s)
Visibility: 6 or more miles (10+ km)
Ceiling: ceiling and visibility are OK
Clouds: unknown
Weather: no significant weather observed at this time

METAR text: LOWI 230550Z VRB01KT CAVOK 01/M01 Q1030 NOSIG
Conditions at: LOWI (INNSBRUCK AIRPOR, AT) observed 0550 UTC 23 March 2019
Temperature: 1.0°C (34°F)
Dewpoint: -1.0°C (30°F) [RH = 86%]
Pressure (altimeter): 30.41 inches Hg (1030.0 mb)
Winds: variable direction winds at 1 MPH (1 knots; 0.5 m/s)
Visibility: 6 or more miles (10+ km)
Ceiling: ceiling and visibility are OK
Clouds: unknown
Weather: no significant weather observed at this time

METAR text: LOWI 230520Z 28002KT CAVOK 00/M01 Q1030 NOSIG
Conditions at: LOWI (INNSBRUCK AIRPOR, AT) observed 0520 UTC 23 March 2019
Temperature: 0.0°C (32°F)
Dewpoint: -1.0°C (30°F) [RH = 93%]
Pressure (altimeter): 30.41 inches Hg (1030.0 mb)
Winds: from the W (280 degrees) at 2 MPH (2 knots; 1.0 m/s)
Visibility: 6 or more miles (10+ km)
Ceiling: ceiling and visibility are OK
Clouds: unknown
Weather: no significant weather observed at this time

METAR text: LOWI 230450Z VRB01KT CAVOK 00/M02 Q1029 NOSIG
Conditions at: LOWI (INNSBRUCK AIRPOR, AT) observed 0450 UTC 23 March 2019
Temperature: 0.0°C (32°F)
Dewpoint: -2.0°C (28°F) [RH = 86%]
Pressure (altimeter): 30.38 inches Hg (1029.0 mb)
Winds: variable direction winds at 1 MPH (1 knots; 0.5 m/s)
Visibility: 6 or more miles (10+ km)
Ceiling: ceiling and visibility are OK
Clouds: unknown
Weather: no significant weather observed at this time

METAR text: LOWI 230420Z AUTO VRB01KT 9999 NSC 01/M01 Q1029
Conditions at: LOWI (INNSBRUCK AIRPOR, AT) observed 0420 UTC 23 March 2019
Temperature: 1.0°C (34°F)
Dewpoint: -1.0°C (30°F) [RH = 86%]
Pressure (altimeter): 30.38 inches Hg (1029.0 mb)
Winds: variable direction winds at 1 MPH (1 knots; 0.5 m/s)
Visibility: 6 or more miles (10+ km)
Ceiling: at least 12,000 feet AGL
Clouds: sky clear below 12,000 feet AGL
Weather: no significant weather observed at this time

METAR text: LOWI 230350Z AUTO VRB01KT 9999 NSC 01/M01 Q1029
Conditions at: LOWI (INNSBRUCK AIRPOR, AT) observed 0350 UTC 23 March 2019
Temperature: 1.0°C (34°F)
Dewpoint: -1.0°C (30°F) [RH = 86%]
Pressure (altimeter): 30.38 inches Hg (1029.0 mb)
Winds: variable direction winds at 1 MPH (1 knots; 0.5 m/s)
Visibility: 6 or more miles (10+ km)
Ceiling: at least 12,000 feet AGL
Clouds: sky clear below 12,000 feet AGL
Weather: no significant weather observed at this time

METAR text: LOWI 230320Z AUTO 25002KT 9999 NSC 01/M01 Q1029
Conditions at: LOWI (INNSBRUCK AIRPOR, AT) observed 0320 UTC 23 March 2019
Temperature: 1.0°C (34°F)
Dewpoint: -1.0°C (30°F) [RH = 86%]
Pressure (altimeter): 30.38 inches Hg (1029.0 mb)
Winds: from the WSW (250 degrees) at 2 MPH (2 knots; 1.0 m/s)
Visibility: 6 or more miles (10+ km)
Ceiling: at least 12,000 feet AGL
Clouds: sky clear below 12,000 feet AGL
Weather: no significant weather observed at this time

METAR text: LOWI 230250Z AUTO 25003KT 9999 NSC 02/M01 Q1029
Conditions at: LOWI (INNSBRUCK AIRPOR, AT) observed 0250 UTC 23 March 2019
Temperature: 2.0°C (36°F)
Dewpoint: -1.0°C (30°F) [RH = 80%]
Pressure (altimeter): 30.38 inches Hg (1029.0 mb)
Winds: from the WSW (250 degrees) at 3 MPH (3 knots; 1.5 m/s)
Visibility: 6 or more miles (10+ km)
Ceiling: at least 12,000 feet AGL
Clouds: sky clear below 12,000 feet AGL
Weather: no significant weather observed at this time

METAR text: LOWI 230220Z AUTO 25003KT 9999 NSC 01/M01 Q1029
Conditions at: LOWI (INNSBRUCK AIRPOR, AT) observed 0220 UTC 23 March 2019
Temperature: 1.0°C (34°F)
Dewpoint: -1.0°C (30°F) [RH = 86%]
Pressure (altimeter): 30.38 inches Hg (1029.0 mb)
Winds: from the WSW (250 degrees) at 3 MPH (3 knots; 1.5 m/s)
Visibility: 6 or more miles (10+ km)
Ceiling: at least 12,000 feet AGL
Clouds: sky clear below 12,000 feet AGL
Weather: no significant weather observed at this time

METAR text: LOWI 230150Z AUTO VRB02KT 9999 NSC 02/M00 Q1029
Conditions at: LOWI (INNSBRUCK AIRPOR, AT) observed 0150 UTC 23 March 2019
Temperature: 2.0°C (36°F)
Dewpoint: 0.0°C (32°F) [RH = 87%]
Pressure (altimeter): 30.38 inches Hg (1029.0 mb)
Winds: variable direction winds at 2 MPH (2 knots; 1.0 m/s)
Visibility: 6 or more miles (10+ km)
Ceiling: at least 12,000 feet AGL
Clouds: sky clear below 12,000 feet AGL
Weather: no significant weather observed at this time

METAR text: LOWI 230120Z AUTO 25003KT 9999 NSC 02/M00 Q1029
Conditions at: LOWI (INNSBRUCK AIRPOR, AT) observed 0120 UTC 23 March 2019
Temperature: 2.0°C (36°F)
Dewpoint: 0.0°C (32°F) [RH = 87%]
Pressure (altimeter): 30.38 inches Hg (1029.0 mb)
Winds: from the WSW (250 degrees) at 3 MPH (3 knots; 1.5 m/s)
Visibility: 6 or more miles (10+ km)
Ceiling: at least 12,000 feet AGL
Clouds: sky clear below 12,000 feet AGL
Weather: no significant weather observed at this time

METAR text: LOWI 230050Z AUTO 28002KT 9999 NSC 03/M00 Q1030
Conditions at: LOWI (INNSBRUCK AIRPOR, AT) observed 0050 UTC 23 March 2019
Temperature: 3.0°C (37°F)
Dewpoint: 0.0°C (32°F) [RH = 81%]
Pressure (altimeter): 30.41 inches Hg (1030.0 mb)
Winds: from the W (280 degrees) at 2 MPH (2 knots; 1.0 m/s)
Visibility: 6 or more miles (10+ km)
Ceiling: at least 12,000 feet AGL
Clouds: sky clear below 12,000 feet AGL
Weather: no significant weather observed at this time

METAR text: LOWI 230020Z AUTO VRB01KT 9999 NSC 03/00 Q1030
Conditions at: LOWI (INNSBRUCK AIRPOR, AT) observed 0020 UTC 23 March 2019
Temperature: 3.0°C (37°F)
Dewpoint: 0.0°C (32°F) [RH = 81%]
Pressure (altimeter): 30.41 inches Hg (1030.0 mb)
Winds: variable direction winds at 1 MPH (1 knots; 0.5 m/s)
Visibility: 6 or more miles (10+ km)
Ceiling: at least 12,000 feet AGL
Clouds: sky clear below 12,000 feet AGL
Weather: no significant weather observed at this time

METAR text: LOWI 222350Z AUTO VRB01KT 9999 NSC 04/00 Q1030
Conditions at: LOWI (INNSBRUCK AIRPOR, AT) observed 2350 UTC 22 March 2019
Temperature: 4.0°C (39°F)
Dewpoint: 0.0°C (32°F) [RH = 75%]
Pressure (altimeter): 30.41 inches Hg (1030.0 mb)
Winds: variable direction winds at 1 MPH (1 knots; 0.5 m/s)
Visibility: 6 or more miles (10+ km)
Ceiling: at least 12,000 feet AGL
Clouds: sky clear below 12,000 feet AGL
Weather: no significant weather observed at this time

METAR text: LOWI 222320Z AUTO 23003KT 180V260 9999 NSC 04/00 Q1029
Conditions at: LOWI (INNSBRUCK AIRPOR, AT) observed 2320 UTC 22 March 2019
Temperature: 4.0°C (39°F)
Dewpoint: 0.0°C (32°F) [RH = 75%]
Pressure (altimeter): 30.38 inches Hg (1029.0 mb)
Winds: from the SW (230 degrees) at 3 MPH (3 knots; 1.5 m/s)
Visibility: 6 or more miles (10+ km)
Ceiling: at least 12,000 feet AGL
Clouds: sky clear below 12,000 feet AGL
Weather: no significant weather observed at this time

METAR text: LOWI 222250Z AUTO VRB01KT 9999 NSC 04/00 Q1029
Conditions at: LOWI (INNSBRUCK AIRPOR, AT) observed 2250 UTC 22 March 2019
Temperature: 4.0°C (39°F)
Dewpoint: 0.0°C (32°F) [RH = 75%]
Pressure (altimeter): 30.38 inches Hg (1029.0 mb)
Winds: variable direction winds at 1 MPH (1 knots; 0.5 m/s)
Visibility: 6 or more miles (10+ km)
Ceiling: at least 12,000 feet AGL
Clouds: sky clear below 12,000 feet AGL
Weather: no significant weather observed at this time

METAR text: LOWI 222220Z AUTO VRB02KT 9999 NSC 06/01 Q1029
Conditions at: LOWI (INNSBRUCK AIRPOR, AT) observed 2220 UTC 22 March 2019
Temperature: 6.0°C (43°F)
Dewpoint: 1.0°C (34°F) [RH = 70%]
Pressure (altimeter): 30.38 inches Hg (1029.0 mb)
Winds: variable direction winds at 2 MPH (2 knots; 1.0 m/s)
Visibility: 6 or more miles (10+ km)
Ceiling: at least 12,000 feet AGL
Clouds: sky clear below 12,000 feet AGL
Weather: no significant weather observed at this time

METAR text: LOWI 222150Z VRB01KT CAVOK 06/01 Q1029 NOSIG
Conditions at: LOWI (INNSBRUCK AIRPOR, AT) observed 2150 UTC 22 March 2019
Temperature: 6.0°C (43°F)
Dewpoint: 1.0°C (34°F) [RH = 70%]
Pressure (altimeter): 30.38 inches Hg (1029.0 mb)
Winds: variable direction winds at 1 MPH (1 knots; 0.5 m/s)
Visibility: 6 or more miles (10+ km)
Ceiling: ceiling and visibility are OK
Clouds: unknown
Weather: no significant weather observed at this time

METAR text: LOWI 222120Z 28002KT CAVOK 06/01 Q1029 NOSIG
Conditions at: LOWI (INNSBRUCK AIRPOR, AT) observed 2120 UTC 22 March 2019
Temperature: 6.0°C (43°F)
Dewpoint: 1.0°C (34°F) [RH = 70%]
Pressure (altimeter): 30.38 inches Hg (1029.0 mb)
Winds: from the W (280 degrees) at 2 MPH (2 knots; 1.0 m/s)
Visibility: 6 or more miles (10+ km)
Ceiling: ceiling and visibility are OK
Clouds: unknown
Weather: no significant weather observed at this time

Forecast for: LOWI (INNSBRUCK AIRPOR, AT)
Text: TAF LOWI 240515Z 2406/2506 27003KT CAVOK TX20/2414Z TN02/2406Z
Forecast period: 0600 to 1100 UTC 24 March 2019
Forecast type: FROM: standard forecast or significant change
Winds: from the W (270 degrees) at 3 MPH (3 knots; 1.5 m/s)
Visibility: 6 or more miles 10+ km)
Ceiling: unknown
Clouds: missing
Weather: no significant weather forecast for this period
Text: BECMG 2411/2413 08008KT 9999 FEW070
Forecast period: 1100 to 1600 UTC 24 March 2019
Forecast type: BECOMING: Conditions expected to become as follows by 1300 UTC 24 March 2019
Winds: from the E (80 degrees) at 9 MPH (8 knots; 4.1 m/s)
Visibility: 6 or more miles 10+ km)
Ceiling: at least 12,000 feet AGL
Clouds: few clouds at 7000 feet AGL
Weather: no significant weather forecast for this period
Text: BECMG 2416/2418 VRB02KT SCT120
Forecast period: 1600 to 1900 UTC 24 March 2019
Forecast type: BECOMING: Conditions expected to become as follows by 1800 UTC 24 March 2019
Winds: variable direction winds at 2 MPH (2 knots; 1.0 m/s)
Visibility: 6 or more miles 10+ km)
Ceiling: at least 12,000 feet AGL
Clouds: scattered clouds at 12000 feet AGL
Weather: no significant weather forecast for this period
Text: BECMG 2419/2421 27007KT 9999 SCT030 BKN070
Forecast period: 1900 UTC 24 March 2019 to 0600 UTC 25 March 2019
Forecast type: BECOMING: Conditions expected to become as follows by 2100 UTC 24 March 2019
Winds: from the W (270 degrees) at 8 MPH (7 knots; 3.6 m/s)
Visibility: 6 or more miles 10+ km)
Ceiling: 7000 feet AGL
Clouds: scattered clouds at 3000 feet AGL
broken clouds at 7000 feet AGL
Weather: no significant weather forecast for this period
Text: TEMPO 2503/2506 27015G25KT SHRA SCT010 BKN020
Forecast period: 0300 to 0600 UTC 25 March 2019
Forecast type: TEMPORARY: The following changes expected for less than half the time period
Winds: from the W (270 degrees) at 17 MPH (15 knots; 7.7 m/s)
gusting to 29 MPH (25 knots; 12.9 m/s)
Visibility: missing
Ceiling: 2000 feet AGL
Clouds: scattered clouds at 1000 feet AGL
broken clouds at 2000 feet AGL
Weather: SHRA  (rain showers)